Terminal Aerodrome Forecast
Issued by NWS

Home | Current Version | Previous Version | Text Only | Print | Product List | Glossary On
Versions: 1 2 3 4 5 6 7 8 9 10 11 12 13 14 15
135
FTUS46 KSEW 191743
TAFBLI
TAF
KBLI 191743Z 1918/2018 15015G25KT P6SM VCSH SCT030 OVC060
      TEMPO 1918/1921 -SHRA
     FM192100 15020G30KT P6SM -SHRA BKN030 OVC050
     FM200600 15013KT P6SM BKN035 OVC050 PROB30 2006/2012 -SHRA=

USA.gov is the U.S. government's official web portal to all federal, state and local government web resources and services.